Time,TemperatureF,DewpointF,PressureIn,WindDirection,WindDirectionDegrees,WindSpeedMPH,WindSpeedGustMPH,Humidity,HourlyPrecipIn,Conditions,Clouds,dailyrainin,SoftwareType,DateUTC
2013-03-30 00:02:00,75.0,-99.9,30.11,NE,54,14.0,19.0,-999,-99.99,,,-99.99,,2013-03-30 04:02:00,
2013-03-30 00:13:00,76.0,-99.9,30.11,ENE,60,14.0,18.0,-999,-99.99,,,-99.99,,2013-03-30 04:13:00,
2013-03-30 00:23:00,75.0,-99.9,30.11,NE,56,11.0,16.0,-999,-99.99,,,-99.99,,2013-03-30 04:23:00,
2013-03-30 00:33:00,75.0,-99.9,30.10,NE,53,11.0,16.0,-999,-99.99,,,-99.99,,2013-03-30 04:33:00,
2013-03-30 00:43:00,76.0,-99.9,30.10,ENE,61,10.0,15.0,-999,-99.99,,,-99.99,,2013-03-30 04:43:00,
2013-03-30 00:53:00,76.0,-99.9,30.10,ENE,61,11.0,17.0,-999,-99.99,,,-99.99,,2013-03-30 04:53:00,
2013-03-30 01:02:00,76.0,-99.9,30.09,NE,55,13.0,17.0,-999,-99.99,,,-99.99,,2013-03-30 05:02:00,
2013-03-30 01:12:00,76.0,-99.9,30.09,ENE,60,12.0,17.0,-999,-99.99,,,-99.99,,2013-03-30 05:12:00,
2013-03-30 01:22:00,76.0,-99.9,30.09,ENE,61,10.0,15.0,-999,-99.99,,,-99.99,,2013-03-30 05:22:00,
2013-03-30 01:32:00,76.0,-99.9,30.09,ENE,62,10.0,16.0,-999,-99.99,,,-99.99,,2013-03-30 05:32:00,
2013-03-30 01:42:00,76.0,-99.9,30.08,ENE,61,12.0,18.0,-999,-99.99,,,-99.99,,2013-03-30 05:42:00,
2013-03-30 01:52:00,76.0,-99.9,30.07,ENE,59,13.0,17.0,-999,-99.99,,,-99.99,,2013-03-30 05:52:00,
2013-03-30 02:02:00,76.0,-99.9,30.08,ENE,61,11.0,16.0,-999,-99.99,,,-99.99,,2013-03-30 06:02:00,
2013-03-30 02:12:00,76.0,-99.9,30.07,ENE,59,14.0,18.0,-999,-99.99,,,-99.99,,2013-03-30 06:12:00,
2013-03-30 02:23:00,76.0,-99.9,30.07,ENE,62,11.0,16.0,-999,-99.99,,,-99.99,,2013-03-30 06:23:00,
2013-03-30 02:32:00,76.0,-99.9,30.07,ENE,62,11.0,15.0,-999,-99.99,,,-99.99,,2013-03-30 06:32:00,
2013-03-30 02:42:00,76.0,-99.9,30.06,ENE,61,9.0,15.0,-999,-99.99,,,-99.99,,2013-03-30 06:42:00,
2013-03-30 02:52:00,76.0,-99.9,30.06,ENE,63,10.0,15.0,-999,-99.99,,,-99.99,,2013-03-30 06:52:00,
2013-03-30 03:02:00,76.0,-99.9,30.06,ENE,64,10.0,15.0,-999,-99.99,,,-99.99,,2013-03-30 07:02:00,
2013-03-30 03:12:00,76.0,-99.9,30.06,ENE,61,9.0,16.0,-999,-99.99,,,-99.99,,2013-03-30 07:12:00,
2013-03-30 03:22:00,76.0,-99.9,30.05,ENE,65,10.0,16.0,-999,-99.99,,,-99.99,,2013-03-30 07:22:00,
2013-03-30 03:32:00,76.0,-99.9,30.05,ENE,61,11.0,16.0,-999,-99.99,,,-99.99,,2013-03-30 07:32:00,
2013-03-30 03:42:00,76.0,-99.9,30.05,ENE,63,9.0,15.0,-999,-99.99,,,-99.99,,2013-03-30 07:42:00,
2013-03-30 03:52:00,76.0,-99.9,30.05,ENE,60,13.0,18.0,-999,-99.99,,,-99.99,,2013-03-30 07:52:00,
2013-03-30 04:02:00,75.0,-99.9,30.05,ENE,67,9.0,13.0,-999,-99.99,,,-99.99,,2013-03-30 08:02:00,
2013-03-30 04:12:00,75.0,-99.9,30.05,ENE,62,9.0,14.0,-999,-99.99,,,-99.99,,2013-03-30 08:12:00,
2013-03-30 04:22:00,75.0,-99.9,30.05,ENE,59,11.0,15.0,-999,-99.99,,,-99.99,,2013-03-30 08:22:00,
2013-03-30 04:32:00,75.0,-99.9,30.05,ENE,62,9.0,14.0,-999,-99.99,,,-99.99,,2013-03-30 08:32:00,
2013-03-30 04:42:00,75.0,-99.9,30.05,ENE,61,8.0,13.0,-999,-99.99,,,-99.99,,2013-03-30 08:42:00,
2013-03-30 04:53:00,75.0,-99.9,30.05,East,82,7.0,9.0,-999,-99.99,,,-99.99,,2013-03-30 08:53:00,
2013-03-30 05:03:00,74.0,-99.9,30.06,East,79,6.0,11.0,-999,-99.99,,,-99.99,,2013-03-30 09:03:00,
2013-03-30 05:12:00,74.0,-99.9,30.05,ENE,70,6.0,10.0,-999,-99.99,,,-99.99,,2013-03-30 09:12:00,
2013-03-30 05:23:00,75.0,-99.9,30.05,ENE,59,13.0,18.0,-999,-99.99,,,-99.99,,2013-03-30 09:23:00,
2013-03-30 05:33:00,75.0,-99.9,30.05,ENE,57,10.0,15.0,-999,-99.99,,,-99.99,,2013-03-30 09:33:00,
2013-03-30 05:43:00,75.0,-99.9,30.05,ENE,63,10.0,15.0,-999,-99.99,,,-99.99,,2013-03-30 09:43:00,
2013-03-30 05:54:00,76.0,-99.9,30.05,ENE,70,8.0,11.0,-999,-99.99,,,-99.99,,2013-03-30 09:54:00,
2013-03-30 06:03:00,76.0,-99.9,30.05,ENE,74,6.0,10.0,-999,-99.99,,,-99.99,,2013-03-30 10:03:00,
2013-03-30 06:13:00,76.0,-99.9,30.05,ENE,67,7.0,11.0,-999,-99.99,,,-99.99,,2013-03-30 10:13:00,
2013-03-30 06:23:00,76.0,-99.9,30.06,ENE,72,8.0,15.0,-999,-99.99,,,-99.99,,2013-03-30 10:23:00,
2013-03-30 06:33:00,76.0,-99.9,30.06,ENE,74,6.0,13.0,-999,-99.99,,,-99.99,,2013-03-30 10:33:00,
2013-03-30 06:42:00,76.0,-99.9,30.06,East,81,7.0,11.0,-999,-99.99,,,-99.99,,2013-03-30 10:42:00,
2013-03-30 06:53:00,76.0,-99.9,30.06,ENE,69,7.0,13.0,-999,-99.99,,,-99.99,,2013-03-30 10:53:00,
2013-03-30 07:04:00,76.0,-99.9,30.06,ENE,67,8.0,13.0,-999,-99.99,,,-99.99,,2013-03-30 11:04:00,
2013-03-30 07:12:00,77.0,-99.9,30.07,ENE,64,8.0,10.0,-999,-99.99,,,-99.99,,2013-03-30 11:12:00,
2013-03-30 07:23:00,77.0,-99.9,30.07,East,80,7.0,11.0,-999,-99.99,,,-99.99,,2013-03-30 11:23:00,
2013-03-30 07:33:00,76.0,-99.9,30.07,ENE,69,8.0,12.0,-999,-99.99,,,-99.99,,2013-03-30 11:33:00,
2013-03-30 07:43:00,77.0,-99.9,30.08,ENE,73,7.0,13.0,-999,-99.99,,,-99.99,,2013-03-30 11:43:00,
2013-03-30 07:53:00,77.0,-99.9,30.08,ENE,77,8.0,13.0,-999,-99.99,,,-99.99,,2013-03-30 11:53:00,
2013-03-30 08:02:00,77.0,-99.9,30.08,ENE,62,9.0,15.0,-999,-99.99,,,-99.99,,2013-03-30 12:02:00,
2013-03-30 08:13:00,76.0,-99.9,30.09,ENE,61,11.0,19.0,-999,-99.99,,,-99.99,,2013-03-30 12:13:00,
2013-03-30 08:23:00,76.0,-99.9,30.09,ENE,60,13.0,20.0,-999,-99.99,,,-99.99,,2013-03-30 12:23:00,
2013-03-30 08:33:00,76.0,-99.9,30.09,ENE,61,12.0,18.0,-999,-99.99,,,-99.99,,2013-03-30 12:33:00,
2013-03-30 08:43:00,76.0,-99.9,30.10,ENE,62,10.0,16.0,-999,-99.99,,,-99.99,,2013-03-30 12:43:00,
2013-03-30 08:53:00,76.0,-99.9,30.10,ENE,58,13.0,16.0,-999,-99.99,,,-99.99,,2013-03-30 12:53:00,
2013-03-30 09:02:00,77.0,-99.9,30.11,ENE,60,13.0,17.0,-999,-99.99,,,-99.99,,2013-03-30 13:02:00,
2013-03-30 09:12:00,76.0,-99.9,30.11,ENE,59,12.0,19.0,-999,-99.99,,,-99.99,,2013-03-30 13:12:00,
2013-03-30 09:23:00,77.0,-99.9,30.11,ENE,64,10.0,14.0,-999,-99.99,,,-99.99,,2013-03-30 13:23:00,
2013-03-30 09:32:00,76.0,-99.9,30.11,ENE,66,9.0,17.0,-999,-99.99,,,-99.99,,2013-03-30 13:32:00,
2013-03-30 09:43:00,76.0,-99.9,30.11,ENE,62,11.0,17.0,-999,-99.99,,,-99.99,,2013-03-30 13:43:00,
2013-03-30 09:53:00,76.0,-99.9,30.11,ENE,68,9.0,13.0,-999,-99.99,,,-99.99,,2013-03-30 13:53:00,
2013-03-30 10:03:00,76.0,-99.9,30.11,ENE,69,9.0,14.0,-999,-99.99,,,-99.99,,2013-03-30 14:03:00,
2013-03-30 10:12:00,77.0,-99.9,30.11,ENE,68,9.0,14.0,-999,-99.99,,,-99.99,,2013-03-30 14:12:00,
2013-03-30 10:23:00,78.0,-99.9,30.11,ENE,71,8.0,13.0,-999,-99.99,,,-99.99,,2013-03-30 14:23:00,
2013-03-30 10:33:00,78.0,-99.9,30.11,ENE,70,8.0,15.0,-999,-99.99,,,-99.99,,2013-03-30 14:33:00,
2013-03-30 10:43:00,78.0,-99.9,30.12,ENE,71,7.0,14.0,-999,-99.99,,,-99.99,,2013-03-30 14:43:00,
2013-03-30 10:53:00,77.0,-99.9,30.11,ENE,60,11.0,15.0,-999,-99.99,,,-99.99,,2013-03-30 14:53:00,
2013-03-30 11:03:00,77.0,-99.9,30.12,ENE,67,10.0,13.0,-999,-99.99,,,-99.99,,2013-03-30 15:03:00,
2013-03-30 11:12:00,74.0,-99.9,30.12,ENE,67,4.0,11.0,-999,-99.99,,,-99.99,,2013-03-30 15:12:00,
2013-03-30 11:23:00,75.0,-99.9,30.12,ENE,67,5.0,10.0,-999,-99.99,,,-99.99,,2013-03-30 15:23:00,
2013-03-30 11:34:00,76.0,-99.9,30.11,ENE,64,11.0,15.0,-999,-99.99,,,-99.99,,2013-03-30 15:34:00,
2013-03-30 11:43:00,76.0,-99.9,30.11,ENE,60,12.0,16.0,-999,-99.99,,,-99.99,,2013-03-30 15:43:00,
2013-03-30 11:53:00,76.0,-99.9,30.10,ENE,62,13.0,16.0,-999,-99.99,,,-99.99,,2013-03-30 15:53:00,
2013-03-30 12:04:00,76.0,-99.9,30.10,ENE,59,16.0,22.0,-999,-99.99,,,-99.99,,2013-03-30 16:04:00,
2013-03-30 12:13:00,76.0,-99.9,30.10,ENE,68,11.0,16.0,-999,-99.99,,,-99.99,,2013-03-30 16:13:00,
2013-03-30 12:23:00,76.0,-99.9,30.10,ENE,63,9.0,14.0,-999,-99.99,,,-99.99,,2013-03-30 16:23:00,
2013-03-30 12:33:00,76.0,-99.9,30.10,ENE,74,9.0,14.0,-999,-99.99,,,-99.99,,2013-03-30 16:33:00,
2013-03-30 12:43:00,77.0,-99.9,30.09,ENE,60,11.0,15.0,-999,-99.99,,,-99.99,,2013-03-30 16:43:00,
2013-03-30 12:53:00,76.0,-99.9,30.09,ENE,63,11.0,15.0,-999,-99.99,,,-99.99,,2013-03-30 16:53:00,
2013-03-30 13:02:00,77.0,-99.9,30.09,ENE,62,13.0,20.0,-999,-99.99,,,-99.99,,2013-03-30 17:02:00,
2013-03-30 13:13:00,76.0,-99.9,30.08,ENE,59,14.0,22.0,-999,-99.99,,,-99.99,,2013-03-30 17:13:00,
2013-03-30 13:23:00,77.0,-99.9,30.08,ENE,64,12.0,20.0,-999,-99.99,,,-99.99,,2013-03-30 17:23:00,
2013-03-30 13:33:00,77.0,-99.9,30.08,ENE,68,10.0,17.0,-999,-99.99,,,-99.99,,2013-03-30 17:33:00,
2013-03-30 13:43:00,77.0,-99.9,30.07,ENE,64,12.0,19.0,-999,-99.99,,,-99.99,,2013-03-30 17:43:00,
2013-03-30 13:53:00,78.0,-99.9,30.07,ENE,61,14.0,19.0,-999,-99.99,,,-99.99,,2013-03-30 17:53:00,
2013-03-30 14:03:00,77.0,-99.9,30.06,ENE,63,15.0,26.0,-999,-99.99,,,-99.99,,2013-03-30 18:03:00,
2013-03-30 14:13:00,77.0,-99.9,30.07,ENE,65,13.0,19.0,-999,-99.99,,,-99.99,,2013-03-30 18:13:00,
2013-03-30 14:22:00,76.0,-99.9,30.06,ENE,61,11.0,19.0,-999,-99.99,,,-99.99,,2013-03-30 18:22:00,
2013-03-30 14:33:00,77.0,-99.9,30.06,ENE,61,13.0,18.0,-999,-99.99,,,-99.99,,2013-03-30 18:33:00,
2013-03-30 14:43:00,77.0,-99.9,30.05,ENE,62,11.0,17.0,-999,-99.99,,,-99.99,,2013-03-30 18:43:00,
2013-03-30 14:53:00,77.0,-99.9,30.05,ENE,68,10.0,19.0,-999,-99.99,,,-99.99,,2013-03-30 18:53:00,
2013-03-30 15:03:00,77.0,-99.9,30.05,ENE,68,11.0,16.0,-999,-99.99,,,-99.99,,2013-03-30 19:03:00,
2013-03-30 15:13:00,78.0,-99.9,30.04,ENE,63,11.0,15.0,-999,-99.99,,,-99.99,,2013-03-30 19:13:00,
2013-03-30 15:22:00,78.0,-99.9,30.04,ENE,67,10.0,13.0,-999,-99.99,,,-99.99,,2013-03-30 19:22:00,
2013-03-30 15:32:00,78.0,-99.9,30.04,ENE,64,11.0,17.0,-999,-99.99,,,-99.99,,2013-03-30 19:32:00,
2013-03-30 15:42:00,78.0,-99.9,30.04,ENE,70,10.0,18.0,-999,-99.99,,,-99.99,,2013-03-30 19:42:00,
2013-03-30 15:53:00,78.0,-99.9,30.04,ENE,68,11.0,19.0,-999,-99.99,,,-99.99,,2013-03-30 19:53:00,
2013-03-30 16:02:00,79.0,-99.9,30.04,ENE,70,10.0,17.0,-999,-99.99,,,-99.99,,2013-03-30 20:02:00,
2013-03-30 16:12:00,78.0,-99.9,30.03,ENE,71,11.0,19.0,-999,-99.99,,,-99.99,,2013-03-30 20:12:00,
2013-03-30 16:22:00,78.0,-99.9,30.03,ENE,70,12.0,19.0,-999,-99.99,,,-99.99,,2013-03-30 20:22:00,
2013-03-30 16:33:00,78.0,-99.9,30.03,ENE,71,10.0,17.0,-999,-99.99,,,-99.99,,2013-03-30 20:33:00,
2013-03-30 16:43:00,78.0,-99.9,30.03,ENE,64,13.0,18.0,-999,-99.99,,,-99.99,,2013-03-30 20:43:00,
2013-03-30 16:53:00,78.0,-99.9,30.03,ENE,70,11.0,18.0,-999,-99.99,,,-99.99,,2013-03-30 20:53:00,
2013-03-30 17:03:00,78.0,-99.9,30.03,ENE,78,10.0,15.0,-999,-99.99,,,-99.99,,2013-03-30 21:03:00,
2013-03-30 17:13:00,77.0,-99.9,30.04,ENE,70,10.0,18.0,-999,-99.99,,,-99.99,,2013-03-30 21:13:00,
2013-03-30 17:23:00,77.0,-99.9,30.04,ENE,72,9.0,15.0,-999,-99.99,,,-99.99,,2013-03-30 21:23:00,
2013-03-30 17:34:00,77.0,-99.9,30.04,ENE,72,9.0,14.0,-999,-99.99,,,-99.99,,2013-03-30 21:34:00,
2013-03-30 17:43:00,77.0,-99.9,30.04,ENE,63,9.0,16.0,-999,-99.99,,,-99.99,,2013-03-30 21:43:00,
2013-03-30 17:53:00,77.0,-99.9,30.04,ENE,67,10.0,15.0,-999,-99.99,,,-99.99,,2013-03-30 21:53:00,
2013-03-30 18:03:00,77.0,-99.9,30.05,ENE,74,10.0,15.0,-999,-99.99,,,-99.99,,2013-03-30 22:03:00,
2013-03-30 18:13:00,77.0,-99.9,30.05,ENE,70,13.0,16.0,-999,-99.99,,,-99.99,,2013-03-30 22:13:00,
2013-03-30 18:24:00,76.0,-99.9,30.06,ENE,73,11.0,15.0,-999,-99.99,,,-99.99,,2013-03-30 22:24:00,
2013-03-30 18:33:00,76.0,-99.9,30.06,ENE,63,12.0,19.0,-999,-99.99,,,-99.99,,2013-03-30 22:33:00,
2013-03-30 18:44:00,76.0,-99.9,30.06,ENE,65,12.0,18.0,-999,-99.99,,,-99.99,,2013-03-30 22:44:00,
2013-03-30 18:54:00,77.0,-99.9,30.06,ENE,68,12.0,17.0,-999,-99.99,,,-99.99,,2013-03-30 22:54:00,
2013-03-30 19:03:00,76.0,-99.9,30.06,ENE,61,12.0,22.0,-999,-99.99,,,-99.99,,2013-03-30 23:03:00,
2013-03-30 19:13:00,76.0,-99.9,30.07,ENE,66,13.0,20.0,-999,-99.99,,,-99.99,,2013-03-30 23:13:00,
2013-03-30 19:22:00,76.0,-99.9,30.07,ENE,69,11.0,21.0,-999,-99.99,,,-99.99,,2013-03-30 23:22:00,
2013-03-30 19:33:00,77.0,-99.9,30.08,ENE,71,10.0,16.0,-999,-99.99,,,-99.99,,2013-03-30 23:33:00,
2013-03-30 19:43:00,77.0,-99.9,30.08,ENE,67,10.0,19.0,-999,-99.99,,,-99.99,,2013-03-30 23:43:00,
2013-03-30 19:53:00,76.0,-99.9,30.08,ENE,72,13.0,17.0,-999,-99.99,,,-99.99,,2013-03-30 23:53:00,
2013-03-30 20:03:00,77.0,-99.9,30.09,ENE,72,11.0,18.0,-999,-99.99,,,-99.99,,2013-03-31 00:03:00,
2013-03-30 20:12:00,77.0,-99.9,30.09,ENE,68,12.0,20.0,-999,-99.99,,,-99.99,,2013-03-31 00:12:00,
2013-03-30 20:23:00,77.0,-99.9,30.09,ENE,65,12.0,18.0,-999,-99.99,,,-99.99,,2013-03-31 00:23:00,
2013-03-30 20:33:00,77.0,-99.9,30.09,ENE,70,13.0,21.0,-999,-99.99,,,-99.99,,2013-03-31 00:33:00,
2013-03-30 20:43:00,78.0,-99.9,30.09,ENE,62,11.0,21.0,-999,-99.99,,,-99.99,,2013-03-31 00:43:00,
2013-03-30 20:53:00,77.0,-99.9,30.09,ENE,63,13.0,19.0,-999,-99.99,,,-99.99,,2013-03-31 00:53:00,
2013-03-30 21:02:00,77.0,-99.9,30.09,ENE,67,10.0,19.0,-999,-99.99,,,-99.99,,2013-03-31 01:02:00,
2013-03-30 21:12:00,77.0,-99.9,30.10,ENE,62,13.0,21.0,-999,-99.99,,,-99.99,,2013-03-31 01:12:00,
2013-03-30 21:22:00,77.0,-99.9,30.10,ENE,66,12.0,18.0,-999,-99.99,,,-99.99,,2013-03-31 01:22:00,
2013-03-30 21:32:00,77.0,-99.9,30.11,ENE,66,12.0,21.0,-999,-99.99,,,-99.99,,2013-03-31 01:32:00,
2013-03-30 21:43:00,77.0,-99.9,30.11,ENE,67,12.0,23.0,-999,-99.99,,,-99.99,,2013-03-31 01:43:00,
2013-03-30 21:53:00,77.0,-99.9,30.11,ENE,64,12.0,22.0,-999,-99.99,,,-99.99,,2013-03-31 01:53:00,
2013-03-30 22:02:00,77.0,-99.9,30.11,ENE,70,11.0,17.0,-999,-99.99,,,-99.99,,2013-03-31 02:02:00,
2013-03-30 22:13:00,78.0,-99.9,30.11,ENE,66,9.0,18.0,-999,-99.99,,,-99.99,,2013-03-31 02:13:00,
2013-03-30 22:22:00,77.0,-99.9,30.11,ENE,72,11.0,16.0,-999,-99.99,,,-99.99,,2013-03-31 02:22:00,
2013-03-30 22:33:00,77.0,-99.9,30.12,ENE,69,11.0,19.0,-999,-99.99,,,-99.99,,2013-03-31 02:33:00,
2013-03-30 22:43:00,77.0,-99.9,30.12,ENE,71,10.0,14.0,-999,-99.99,,,-99.99,,2013-03-31 02:43:00,
2013-03-30 22:53:00,77.0,-99.9,30.12,ENE,70,10.0,14.0,-999,-99.99,,,-99.99,,2013-03-31 02:53:00,
2013-03-30 23:02:00,77.0,-99.9,30.12,ENE,69,10.0,14.0,-999,-99.99,,,-99.99,,2013-03-31 03:02:00,
2013-03-30 23:13:00,77.0,-99.9,30.11,ENE,70,11.0,17.0,-999,-99.99,,,-99.99,,2013-03-31 03:13:00,
2013-03-30 23:22:00,77.0,-99.9,30.11,ENE,68,10.0,15.0,-999,-99.99,,,-99.99,,2013-03-31 03:22:00,
2013-03-30 23:33:00,77.0,-99.9,30.11,ENE,70,12.0,15.0,-999,-99.99,,,-99.99,,2013-03-31 03:33:00,
2013-03-30 23:44:00,77.0,-99.9,30.11,ENE,71,11.0,15.0,-999,-99.99,,,-99.99,,2013-03-31 03:44:00,
2013-03-30 23:54:00,78.0,-99.9,30.11,ENE,71,10.0,14.0,-999,-99.99,,,-99.99,,2013-03-31 03:54:00,